This is the latest recevied weather packets stored in our database for station/object GW1699. If no packets are shown the sender has not sent any weather packets the latest 10 day(s).
| Time | Temp. | Humidity | Pressure | Rain* | Wind** | Luminosity | Snow |
|---|---|---|---|---|---|---|---|
| 1777745574 | 11.67° C | 41% | 1013.2 hPa | 0 mm | - | - | - |
| 1777737984 | 10.56° C | 50% | 1014.2 hPa | 0 mm | - | - | - |
| 1777735839 | 10° C | 49% | 1014.2 hPa | 0 mm | - | - | - |
| 1777735453 | 9.44° C | 52% | 1014.2 hPa | 0 mm | - | - | - |
| 1777734045 | 9.44° C | 52% | 1014.5 hPa | 0 mm | - | - | - |
| 1777732610 | 8.89° C | 62% | 1014.5 hPa | 0 mm | - | - | - |
| 1777727567 | 8.89° C | 79% | 1014.5 hPa | 0 mm | - | - | - |
| 1777726834 | 7.78° C | 83% | 1014.5 hPa | 0 mm | - | - | - |
| 1777723604 | 3.33° C | 99% | 1014.9 hPa | 0 mm | - | - | - |
| 1777722892 | 1.67° C | 99% | 1014.9 hPa | 0 mm | - | - | - |
| 1777722152 | 1.11° C | 99% | 1014.9 hPa | 0 mm | - | - | - |
| 1777717127 | 0.56° C | 99% | 1014.9 hPa | 0 mm | - | - | - |
| 1777716391 | 0.56° C | 99% | 1014.9 hPa | 0 mm | - | - | - |
| 1777705945 | 1.67° C | 99% | 1014.2 hPa | 0 mm | - | - | - |
| 1777701647 | 2.78° C | 97% | 1014.9 hPa | 0 mm | - | - | - |
| 1777701289 | 2.78° C | 97% | 1014.9 hPa | 0 mm | - | - | - |
| 1777699821 | 3.33° C | 95% | 1014.9 hPa | 0 mm | - | - | - |
| 1777698388 | 4.44° C | 93% | 1014.9 hPa | 0 mm | - | - | - |
| 1777695875 | 5.56° C | 87% | 1014.9 hPa | 0 mm | - | - | - |
| 1777691175 | 7.78° C | 78% | 1014.5 hPa | 0 mm | - | - | - |
| 1777681112 | 8.89° C | 90% | 1011.8 hPa | 0 mm | - | - | - |
| 1777680766 | 8.89° C | 89% | 1011.8 hPa | 0 mm | - | - | - |
| 1777679693 | 9.44° C | 85% | 1011.8 hPa | 0 mm | - | - | - |
| 1777678973 | 9.44° C | 78% | 1011.5 hPa | 0 mm | - | - | - |
| 1777674654 | 11.11° C | 74% | 1011.1 hPa | 0 mm | - | - | - |
* Rain since midnight (hover to see other rain measurements)
** Current wind speed in m/s (hover to see current wind gust speed)